createdAt,value
2023-03-24T03:02:46.197Z,9.85
2023-03-24T03:05:18.132Z,9.88
2023-03-24T03:07:48.922Z,9.89
2023-03-24T03:10:27.195Z,9.90
2023-03-24T03:12:58.928Z,9.91
2023-03-24T03:15:33.272Z,9.92
2023-03-24T03:18:09.227Z,9.94
2023-03-24T03:20:51.343Z,9.93
2023-03-24T03:23:52.583Z,9.92
2023-03-24T03:26:27.128Z,9.90
2023-03-24T03:29:02.279Z,9.88
2023-03-24T03:31:42.321Z,9.88
2023-03-24T03:34:35.141Z,9.87
2023-03-24T03:37:23.005Z,9.85
2023-03-24T03:40:17.988Z,9.84
2023-03-24T03:42:49.657Z,9.80
2023-03-24T03:45:19.028Z,9.78
2023-03-24T03:47:48.351Z,9.76
2023-03-24T03:50:18.112Z,9.75
2023-03-24T03:52:46.570Z,9.74
2023-03-24T03:55:15.571Z,9.74
2023-03-24T03:57:44.879Z,9.71
2023-03-24T04:00:40.961Z,9.71
2023-03-24T04:03:38.179Z,9.69
2023-03-24T04:06:14.518Z,9.66
2023-03-24T04:08:58.046Z,9.65
2023-03-24T04:11:51.612Z,9.63
2023-03-24T04:14:43.561Z,9.60
2023-03-24T04:17:32.378Z,9.57
2023-03-24T04:20:14.682Z,9.57
2023-03-24T04:22:57.868Z,9.58
2023-03-24T04:25:37.712Z,9.57
2023-03-24T04:28:14.516Z,9.55
2023-03-24T04:30:46.298Z,9.56
2023-03-24T04:33:22.520Z,9.58
2023-03-24T04:35:58.467Z,9.59
2023-03-24T04:38:39.096Z,9.60
2023-03-24T04:41:18.274Z,9.59
2023-03-24T04:43:55.564Z,9.60
2023-03-24T04:46:25.150Z,9.61
2023-03-24T04:48:59.930Z,9.61
2023-03-24T04:51:33.521Z,9.63
2023-03-24T04:54:24.465Z,9.64
2023-03-24T04:56:59.262Z,9.69
2023-03-24T04:59:35.053Z,9.73
2023-03-24T05:02:06.340Z,9.78
2023-03-24T05:04:40.151Z,9.85
2023-03-24T05:07:19.410Z,9.88
2023-03-24T05:09:50.442Z,9.90
2023-03-24T05:12:19.539Z,9.93
2023-03-24T05:15:07.750Z,9.93
2023-03-24T05:17:37.998Z,9.93
2023-03-24T05:20:11.616Z,10.02
2023-03-24T05:22:43.248Z,10.08
2023-03-24T05:25:12.209Z,10.12
2023-03-24T05:27:40.879Z,10.19
2023-03-24T05:30:21.379Z,10.25
2023-03-24T05:32:52.500Z,10.31
2023-03-24T05:35:21.958Z,10.33
2023-03-24T05:37:51.685Z,10.37
2023-03-24T05:40:21.181Z,10.42
2023-03-24T05:42:54.992Z,10.50
2023-03-24T05:45:26.670Z,10.57
2023-03-24T05:47:57.422Z,10.60
2023-03-24T05:50:36.714Z,10.68
2023-03-24T05:53:05.732Z,10.72
2023-03-24T05:56:02.265Z,10.79
2023-03-24T05:58:55.017Z,10.84
2023-03-24T06:01:26.102Z,10.90
2023-03-24T06:04:00.575Z,10.99
2023-03-24T06:06:29.908Z,11.06
2023-03-24T06:09:02.760Z,11.15
2023-03-24T06:11:31.585Z,11.19
2023-03-24T06:14:06.033Z,11.25
2023-03-24T06:16:45.049Z,11.28
2023-03-24T06:19:17.098Z,11.33
2023-03-24T06:22:07.782Z,11.38
2023-03-24T06:24:39.774Z,11.44
2023-03-24T06:27:12.010Z,11.50
2023-03-24T06:29:44.651Z,11.56
2023-03-24T06:32:13.752Z,11.58
2023-03-24T06:34:46.293Z,11.61
2023-03-24T06:37:19.970Z,11.66
2023-03-24T06:39:49.299Z,11.67
2023-03-24T06:42:19.645Z,11.71
2023-03-24T06:44:48.808Z,11.79
2023-03-24T06:47:18.027Z,11.85
2023-03-24T06:49:48.279Z,11.91
2023-03-24T06:52:17.374Z,12.01
2023-03-24T06:54:46.440Z,12.12
2023-03-24T06:57:15.328Z,12.22
2023-03-24T07:00:10.486Z,12.30
2023-03-24T07:02:49.005Z,12.37
2023-03-24T07:05:18.633Z,12.46
2023-03-24T07:10:40.563Z,12.66
2023-03-24T07:13:09.782Z,12.76
2023-03-24T07:15:40.668Z,12.86
2023-03-24T07:18:14.234Z,12.96
2023-03-24T07:20:45.750Z,13.01
2023-03-24T07:23:21.053Z,13.09
2023-03-24T07:25:55.406Z,13.15
2023-03-24T07:28:45.626Z,13.23
2023-03-24T07:31:15.226Z,13.29
2023-03-24T07:33:44.165Z,13.36
2023-03-24T07:36:13.006Z,13.45
2023-03-24T07:38:41.249Z,13.56
2023-03-24T07:41:12.875Z,13.68
2023-03-24T07:43:44.992Z,13.78
2023-03-24T07:46:35.368Z,13.93
2023-03-24T07:49:18.057Z,14.09
2023-03-24T07:51:54.093Z,14.26
2023-03-24T07:54:36.900Z,14.41
2023-03-24T07:57:07.975Z,14.54
2023-03-24T07:59:39.105Z,14.65
2023-03-24T08:02:43.616Z,14.75
2023-03-24T08:05:51.419Z,14.87
2023-03-24T08:08:41.555Z,14.99
2023-03-24T08:11:10.608Z,15.14
2023-03-24T08:13:38.996Z,15.25
2023-03-24T08:16:08.185Z,15.36
2023-03-24T08:18:37.387Z,15.47
2023-03-24T08:21:06.488Z,15.57
2023-03-24T08:23:37.909Z,15.63
2023-03-24T08:26:07.828Z,15.68
2023-03-24T08:28:38.176Z,15.69
2023-03-24T08:31:07.587Z,15.66
2023-03-24T08:33:38.111Z,15.61
2023-03-24T08:36:07.456Z,15.52
2023-03-24T08:38:39.623Z,15.42
2023-03-24T08:41:09.156Z,15.32
2023-03-24T08:43:38.044Z,15.24
2023-03-24T08:46:08.382Z,15.19
2023-03-24T08:48:40.084Z,15.11
2023-03-24T08:51:13.546Z,15.03
2023-03-24T08:53:42.454Z,14.96
2023-03-24T08:56:11.685Z,14.88
2023-03-24T08:58:40.980Z,14.80
2023-03-24T09:01:10.919Z,14.74
2023-03-24T09:03:40.246Z,14.69
2023-03-24T09:06:09.633Z,14.66
2023-03-24T09:08:38.972Z,14.61
2023-03-24T09:11:08.404Z,14.54
2023-03-24T09:13:37.358Z,14.52
2023-03-24T09:16:06.633Z,14.51
2023-03-24T09:18:36.310Z,14.56
2023-03-24T09:21:05.554Z,14.65
2023-03-24T09:23:34.990Z,14.70
2023-03-24T09:26:04.400Z,14.69
2023-03-24T09:28:33.736Z,14.66
2023-03-24T09:31:06.433Z,14.65
2023-03-24T09:33:38.762Z,14.71
2023-03-24T09:36:08.069Z,14.81
2023-03-24T09:38:37.212Z,14.96
2023-03-24T09:41:16.306Z,15.11
2023-03-24T09:43:48.630Z,15.16
2023-03-24T09:46:27.814Z,15.11
2023-03-24T09:49:00.930Z,15.08
2023-03-24T09:51:33.977Z,15.07
2023-03-24T09:54:03.007Z,15.14
2023-03-24T09:56:33.398Z,15.19
2023-03-24T09:59:14.707Z,15.24
2023-03-24T10:01:43.876Z,15.36
2023-03-24T10:04:23.738Z,15.43
2023-03-24T10:07:10.078Z,15.48
2023-03-24T10:09:39.671Z,15.52
2023-03-24T10:12:17.926Z,15.60
2023-03-24T10:14:56.946Z,15.69
2023-03-24T10:17:41.189Z,15.77
2023-03-24T10:20:30.108Z,15.81
2023-03-24T10:23:04.492Z,15.79
2023-03-24T10:25:52.730Z,15.78
2023-03-24T10:28:27.680Z,15.79
2023-03-24T10:30:58.460Z,15.87
2023-03-24T10:33:27.703Z,16.02
2023-03-24T10:36:02.615Z,16.20
2023-03-24T10:38:31.845Z,16.41
2023-03-24T10:41:01.656Z,16.69
2023-03-24T10:43:32.006Z,16.98
2023-03-24T10:46:02.529Z,17.28
2023-03-24T10:48:41.287Z,17.54
2023-03-24T10:51:29.318Z,17.75
2023-03-24T10:54:17.415Z,18.00
2023-03-24T10:56:51.893Z,18.25
2023-03-24T10:59:26.183Z,18.42
2023-03-24T11:02:03.187Z,18.55
2023-03-24T11:04:32.499Z,18.66
2023-03-24T11:07:28.532Z,18.81
2023-03-24T11:10:03.867Z,18.95
2023-03-24T11:12:34.304Z,19.07
2023-03-24T11:15:21.357Z,19.15
2023-03-24T11:17:57.502Z,19.23
2023-03-24T11:20:29.641Z,19.27
2023-03-24T11:23:08.017Z,19.31
2023-03-24T11:25:38.085Z,19.38
2023-03-24T11:28:09.720Z,19.40
2023-03-24T11:30:48.985Z,19.38
2023-03-24T11:33:35.340Z,19.34
2023-03-24T11:36:28.939Z,19.30
2023-03-24T11:39:00.043Z,19.25
2023-03-24T11:41:28.887Z,19.20
2023-03-24T11:44:16.546Z,19.18
2023-03-24T11:46:47.902Z,19.15
2023-03-24T11:49:19.266Z,19.06
2023-03-24T11:51:50.612Z,18.99
2023-03-24T11:54:21.046Z,18.91
2023-03-24T11:56:54.791Z,18.90
2023-03-24T11:59:31.917Z,18.95
2023-03-24T12:02:01.152Z,19.06
2023-03-24T12:04:39.738Z,19.18
2023-03-24T12:07:08.886Z,19.29
2023-03-24T12:09:44.119Z,19.41
2023-03-24T12:12:21.992Z,19.48
2023-03-24T12:15:00.039Z,19.52
2023-03-24T12:17:39.918Z,19.54
2023-03-24T12:20:26.679Z,19.58
2023-03-24T12:22:55.890Z,19.60
2023-03-24T12:25:24.707Z,19.64
2023-03-24T12:28:12.383Z,19.72
2023-03-24T12:30:44.241Z,19.80
2023-03-24T12:33:24.215Z,19.83
2023-03-24T12:36:06.305Z,19.87
2023-03-24T12:38:49.576Z,19.92
2023-03-24T12:41:18.798Z,19.97
2023-03-24T12:43:51.072Z,19.99
2023-03-24T12:46:23.368Z,20.02
2023-03-24T12:49:16.285Z,20.06
2023-03-24T12:52:01.111Z,20.11
2023-03-24T12:54:46.721Z,20.07
2023-03-24T12:57:17.878Z,19.94
2023-03-24T12:59:58.638Z,19.84
2023-03-24T13:02:34.526Z,19.75
2023-03-24T13:05:07.688Z,19.70
2023-03-24T13:07:44.653Z,19.63
2023-03-24T13:10:14.232Z,19.57
2023-03-24T13:12:48.811Z,19.50
2023-03-24T13:15:39.841Z,19.38
2023-03-24T13:18:12.374Z,19.24
2023-03-24T13:20:41.691Z,19.16
2023-03-24T13:23:28.341Z,19.09
2023-03-24T13:25:57.321Z,19.02
2023-03-24T13:28:30.924Z,19.00
2023-03-24T13:31:01.667Z,18.93
2023-03-24T13:33:32.361Z,18.80
2023-03-24T13:36:21.788Z,18.63
2023-03-24T13:38:52.576Z,18.41
2023-03-24T13:41:24.348Z,18.25
2023-03-24T13:44:01.039Z,18.05
2023-03-24T13:46:29.834Z,17.89
2023-03-24T13:48:59.498Z,17.73
2023-03-24T13:51:28.197Z,17.62
2023-03-24T13:53:56.926Z,17.49
2023-03-24T13:56:33.946Z,17.37
2023-03-24T13:59:02.382Z,17.25
2023-03-24T14:01:33.195Z,17.15
2023-03-24T14:04:20.383Z,17.08
2023-03-24T14:06:48.734Z,17.01
2023-03-24T14:09:22.005Z,16.97
2023-03-24T14:11:57.352Z,16.90
2023-03-24T14:14:27.316Z,16.83
2023-03-24T14:17:05.925Z,16.76
2023-03-24T14:19:53.653Z,16.67
2023-03-24T14:22:25.251Z,16.59
2023-03-24T14:24:59.773Z,16.51
2023-03-24T14:27:37.267Z,16.44
2023-03-24T14:30:12.365Z,16.43
2023-03-24T14:32:44.898Z,16.46
2023-03-24T14:35:31.992Z,16.52
2023-03-24T14:38:03.396Z,16.63
2023-03-24T14:40:38.109Z,16.76
2023-03-24T14:43:17.788Z,16.87
2023-03-24T14:46:01.938Z,16.92
2023-03-24T14:48:34.118Z,16.95
2023-03-24T14:51:26.361Z,16.99
2023-03-24T14:53:58.524Z,17.03
2023-03-24T14:56:29.579Z,17.08
2023-03-24T14:59:05.436Z,17.10
2023-03-24T15:01:34.454Z,17.10
2023-03-24T15:04:05.277Z,17.12
2023-03-24T15:06:33.977Z,17.14
2023-03-24T15:09:06.370Z,17.14
2023-03-24T15:11:36.938Z,17.09
2023-03-24T15:14:05.938Z,17.03
2023-03-24T15:16:36.120Z,17.00
2023-03-24T15:19:06.497Z,16.97
2023-03-24T15:21:36.124Z,16.94
2023-03-24T15:24:25.066Z,16.91
2023-03-24T15:26:54.178Z,16.87
2023-03-24T15:29:24.256Z,16.84
2023-03-24T15:32:07.139Z,16.80
2023-03-24T15:34:37.420Z,16.73
2023-03-24T15:37:08.098Z,16.72
2023-03-24T15:39:37.763Z,16.72
2023-03-24T15:42:07.085Z,16.69
2023-03-24T15:44:39.749Z,16.67
2023-03-24T15:47:18.588Z,16.66
2023-03-24T15:49:52.206Z,16.63
2023-03-24T15:52:29.869Z,16.60
2023-03-24T15:55:02.646Z,16.56
2023-03-24T15:57:37.895Z,16.55
2023-03-24T16:00:16.686Z,16.54
2023-03-24T16:02:50.921Z,16.51
2023-03-24T16:05:24.516Z,16.48
2023-03-24T16:07:59.284Z,16.46
2023-03-24T16:10:34.393Z,16.47
2023-03-24T16:13:18.623Z,16.47
2023-03-24T16:15:48.647Z,16.43
2023-03-24T16:18:25.921Z,16.38
2023-03-24T16:20:54.952Z,16.31
2023-03-24T16:23:26.212Z,16.27
2023-03-24T16:25:55.801Z,16.25
2023-03-24T16:28:25.311Z,16.24
2023-03-24T16:30:58.611Z,16.20
2023-03-24T16:33:27.556Z,16.16
2023-03-24T16:35:57.316Z,16.12
2023-03-24T16:38:26.302Z,16.11
2023-03-24T16:40:56.194Z,16.12
2023-03-24T16:43:25.382Z,16.14
2023-03-24T16:45:54.524Z,16.16
2023-03-24T16:48:23.201Z,16.14
2023-03-24T16:50:53.624Z,16.08
2023-03-24T16:53:22.650Z,16.01
2023-03-24T16:55:51.688Z,15.94
2023-03-24T16:58:19.969Z,15.86
2023-03-24T17:00:49.436Z,15.81
2023-03-24T17:03:18.799Z,15.75
2023-03-24T17:05:48.609Z,15.66
2023-03-24T17:08:21.297Z,15.57
2023-03-24T17:10:52.320Z,15.49
2023-03-24T17:13:22.973Z,15.45
2023-03-24T17:15:52.990Z,15.41
2023-03-24T17:18:21.648Z,15.37
2023-03-24T17:20:51.300Z,15.34
2023-03-24T17:23:19.940Z,15.30
2023-03-24T17:25:48.922Z,15.27
2023-03-24T17:28:17.817Z,15.22
2023-03-24T17:30:47.057Z,15.19
2023-03-24T17:33:16.096Z,15.14
2023-03-24T17:35:48.267Z,15.07
2023-03-24T17:38:16.915Z,15.00
2023-03-24T17:40:47.121Z,14.95
2023-03-24T17:43:16.748Z,14.93
2023-03-24T17:45:45.849Z,14.90
2023-03-24T17:48:14.953Z,14.84
2023-03-24T17:50:44.357Z,14.80
2023-03-24T17:53:14.276Z,14.78
2023-03-24T17:55:43.545Z,14.76
2023-03-24T17:58:12.335Z,14.75
2023-03-24T18:00:41.726Z,14.71
2023-03-24T18:03:10.396Z,14.67
2023-03-24T18:05:38.822Z,14.70
2023-03-24T18:08:07.458Z,14.72
2023-03-24T18:10:36.871Z,14.66
2023-03-24T18:13:06.078Z,14.62
2023-03-24T18:15:35.279Z,14.59
2023-03-24T18:18:03.517Z,14.56
2023-03-24T18:20:32.603Z,14.57
2023-03-24T18:23:01.641Z,14.56
2023-03-24T18:25:30.644Z,14.49
2023-03-24T18:27:58.847Z,14.47
2023-03-24T18:30:31.436Z,14.43
2023-03-24T18:33:02.041Z,14.39
2023-03-24T18:35:30.735Z,14.37
2023-03-24T18:37:59.518Z,14.37
2023-03-24T18:40:28.473Z,14.34
2023-03-24T18:42:57.590Z,14.31
2023-03-24T18:45:26.588Z,14.30
2023-03-24T18:47:55.246Z,14.27
2023-03-24T18:50:25.006Z,14.27
2023-03-24T18:52:54.834Z,14.23
2023-03-24T18:55:26.015Z,14.22
2023-03-24T18:57:55.671Z,14.19
2023-03-24T19:00:25.901Z,14.13
2023-03-24T19:02:55.103Z,14.05
2023-03-24T19:05:23.672Z,13.93
2023-03-24T19:07:52.676Z,13.83
2023-03-24T19:10:25.007Z,13.71
2023-03-24T19:12:55.662Z,13.62
2023-03-24T19:15:25.132Z,13.51
2023-03-24T19:17:53.884Z,13.41
2023-03-24T19:20:23.011Z,13.31
2023-03-24T19:22:52.188Z,13.24
2023-03-24T19:25:22.083Z,13.21
2023-03-24T19:27:50.824Z,13.17
2023-03-24T19:30:20.149Z,13.14
2023-03-24T19:32:49.497Z,13.11
2023-03-24T19:35:18.144Z,13.07
2023-03-24T19:37:46.515Z,12.99
2023-03-24T19:40:15.995Z,12.95
2023-03-24T19:42:45.352Z,12.89
2023-03-24T19:45:15.778Z,12.85
2023-03-24T19:47:46.227Z,12.81
2023-03-24T19:50:17.084Z,12.81
2023-03-24T19:52:48.517Z,12.82
2023-03-24T19:55:17.325Z,12.81
2023-03-24T19:57:46.452Z,12.79
2023-03-24T20:00:15.550Z,12.78
2023-03-24T20:02:44.289Z,12.80
2023-03-24T20:05:12.916Z,12.81
2023-03-24T20:07:42.000Z,12.83
2023-03-24T20:10:10.858Z,12.80
2023-03-24T20:12:39.373Z,12.82
2023-03-24T20:15:08.460Z,12.80
2023-03-24T20:17:39.724Z,12.75
2023-03-24T20:20:10.668Z,12.73
2023-03-24T20:22:45.388Z,12.74
2023-03-24T20:25:15.393Z,12.71
2023-03-24T20:27:48.093Z,12.70
2023-03-24T20:30:19.009Z,12.72
2023-03-24T20:32:47.920Z,12.71
2023-03-24T20:35:16.914Z,12.71
2023-03-24T20:37:46.143Z,12.71
2023-03-24T20:40:14.666Z,12.70
2023-03-24T20:42:43.302Z,12.71
2023-03-24T20:45:12.521Z,12.68
2023-03-24T20:47:42.664Z,12.63
2023-03-24T20:50:11.546Z,12.59
2023-03-24T20:52:39.849Z,12.57
2023-03-24T20:55:10.241Z,12.55
2023-03-24T20:57:39.005Z,12.52
2023-03-24T21:00:14.474Z,12.47
2023-03-24T21:02:43.496Z,12.40
2023-03-24T21:05:13.405Z,12.27
2023-03-24T21:07:44.443Z,12.11
2023-03-24T21:10:14.913Z,12.06
2023-03-24T21:12:52.857Z,12.04
2023-03-24T21:15:25.230Z,12.00
2023-03-24T21:17:54.210Z,11.96
2023-03-24T21:20:27.089Z,11.95
2023-03-24T21:22:56.154Z,11.94
2023-03-24T21:25:29.156Z,11.86
2023-03-24T21:27:57.885Z,11.78
2023-03-24T21:30:27.222Z,11.71
2023-03-24T21:32:56.844Z,11.67
2023-03-24T21:35:25.242Z,11.67
2023-03-24T21:37:54.458Z,11.58
2023-03-24T21:40:25.710Z,11.50
2023-03-24T21:42:54.216Z,11.48
2023-03-24T21:45:24.128Z,11.44
2023-03-24T21:47:56.454Z,11.39
2023-03-24T21:50:25.911Z,11.33
2023-03-24T21:52:55.135Z,11.28
2023-03-24T21:55:25.560Z,11.26
2023-03-24T21:57:53.741Z,11.27
2023-03-24T22:00:26.437Z,11.23
2023-03-24T22:02:54.792Z,11.19
2023-03-24T22:05:24.784Z,11.18
2023-03-24T22:07:54.372Z,11.12
2023-03-24T22:10:24.746Z,11.12
2023-03-24T22:12:53.788Z,11.08
2023-03-24T22:15:23.064Z,11.02
2023-03-24T22:17:52.062Z,10.92
2023-03-24T22:20:20.688Z,10.83
2023-03-24T22:22:49.160Z,10.80
2023-03-24T22:25:19.264Z,10.78
2023-03-24T22:27:52.881Z,10.77
2023-03-24T22:30:21.545Z,10.76
2023-03-24T22:32:50.414Z,10.72
2023-03-24T22:35:19.097Z,10.71
2023-03-24T22:37:47.596Z,10.70
2023-03-24T22:40:15.830Z,10.67
2023-03-24T22:42:44.580Z,10.63
2023-03-24T22:45:13.653Z,10.58
2023-03-24T22:47:42.508Z,10.57
2023-03-24T22:50:12.229Z,10.58
2023-03-24T22:52:40.665Z,10.59
2023-03-24T22:55:10.984Z,10.59
2023-03-24T22:57:39.555Z,10.61
2023-03-24T23:00:08.866Z,10.54
2023-03-24T23:02:37.508Z,10.50
2023-03-24T23:05:07.123Z,10.51
2023-03-24T23:07:35.640Z,10.50
2023-03-24T23:10:07.115Z,10.49
2023-03-24T23:12:37.756Z,10.48
2023-03-24T23:15:08.537Z,10.46
2023-03-24T23:17:37.561Z,10.43
2023-03-24T23:20:08.570Z,10.41
2023-03-24T23:22:38.948Z,10.38
2023-03-24T23:25:08.655Z,10.29
2023-03-24T23:27:38.553Z,10.23
2023-03-24T23:30:08.299Z,10.22
2023-03-24T23:32:37.916Z,10.17
2023-03-24T23:35:08.558Z,10.11
2023-03-24T23:37:37.020Z,10.08
2023-03-24T23:40:11.944Z,10.02
2023-03-24T23:42:41.695Z,10.00
2023-03-24T23:45:15.238Z,9.94
2023-03-24T23:47:45.478Z,9.92
2023-03-24T23:50:17.159Z,9.87
2023-03-24T23:52:46.146Z,9.84
2023-03-24T23:55:16.780Z,9.81
2023-03-24T23:57:49.808Z,9.77
